createdAt,value
2022-12-06T00:00:53.695Z,75.90
2022-12-06T00:03:26.825Z,73.40
2022-12-06T00:06:06.534Z,70.70
2022-12-06T00:08:42.684Z,66.50
2022-12-06T00:11:17.528Z,69.00
2022-12-06T00:13:53.746Z,64.30
2022-12-06T00:16:26.959Z,64.30
2022-12-06T00:19:00.925Z,59.30
2022-12-06T00:21:38.045Z,59.20
2022-12-06T00:24:19.238Z,64.80
2022-12-06T00:26:52.715Z,63.90
2022-12-06T00:29:26.547Z,68.30
2022-12-06T00:34:29.963Z,63.40
2022-12-06T00:37:02.929Z,70.20
2022-12-06T00:39:35.894Z,70.10
2022-12-06T00:42:08.645Z,58.50
2022-12-06T00:44:41.847Z,67.00
2022-12-06T00:47:15.928Z,67.70
2022-12-06T00:49:48.818Z,63.50
2022-12-06T00:52:21.489Z,61.40
2022-12-06T00:54:54.577Z,64.10
2022-12-06T00:57:27.242Z,63.00
2022-12-06T01:00:00.160Z,66.60
2022-12-06T01:02:35.467Z,62.50
2022-12-06T01:05:14.867Z,63.20
2022-12-06T01:07:47.420Z,61.10
2022-12-06T01:10:20.461Z,65.40
2022-12-06T01:12:53.148Z,51.20
2022-12-06T01:15:26.809Z,65.80
2022-12-06T01:17:59.390Z,64.30
2022-12-06T01:20:32.330Z,71.50
2022-12-06T01:23:05.081Z,62.90
2022-12-06T01:25:38.165Z,69.10
2022-12-06T01:28:30.620Z,73.60
2022-12-06T01:31:07.932Z,67.60
2022-12-06T01:33:42.501Z,60.10
2022-12-06T01:36:21.848Z,54.80
2022-12-06T01:38:55.740Z,58.50
2022-12-06T01:41:29.210Z,51.30
2022-12-06T01:44:05.553Z,79.20
2022-12-06T01:46:41.770Z,96.20
2022-12-06T01:49:21.462Z,90.00
2022-12-06T01:51:58.139Z,99.50
2022-12-06T01:54:34.091Z,87.70
2022-12-06T01:57:11.021Z,69.90
2022-12-06T01:59:44.723Z,107.30
2022-12-06T05:35:42.179Z,102.30
2022-12-06T05:38:14.439Z,53.00
2022-12-06T05:40:48.663Z,51.40
2022-12-06T05:43:21.025Z,70.60
2022-12-06T05:45:55.637Z,48.60
2022-12-06T05:48:29.412Z,56.50
2022-12-06T05:51:01.471Z,80.40
2022-12-06T05:53:33.813Z,126.90
2022-12-06T05:56:11.551Z,91.30
2022-12-06T05:58:43.629Z,66.40
2022-12-06T06:01:15.629Z,60.90
2022-12-06T06:03:48.156Z,62.50
2022-12-06T06:06:21.531Z,65.20
2022-12-06T06:08:53.901Z,33.40
2022-12-06T06:11:26.012Z,51.50
2022-12-06T06:13:58.471Z,95.00
2022-12-06T06:16:33.130Z,68.00
2022-12-06T06:19:05.549Z,80.00
2022-12-06T06:21:38.988Z,92.30
2022-12-06T06:24:11.800Z,67.00
2022-12-06T06:26:44.091Z,58.10
2022-12-06T06:29:16.599Z,50.90
2022-12-06T06:31:48.926Z,32.50
2022-12-06T06:34:21.430Z,58.50
2022-12-06T06:36:53.809Z,55.60
2022-12-06T06:39:26.075Z,51.00
2022-12-06T06:41:58.242Z,57.70
2022-12-06T06:44:30.512Z,48.50
2022-12-06T06:47:03.011Z,48.10
2022-12-06T06:49:36.671Z,51.10
2022-12-06T06:52:08.952Z,44.20
2022-12-06T06:54:41.212Z,48.90
2022-12-06T06:57:17.643Z,49.00
2022-12-06T06:59:50.354Z,45.20
2022-12-06T07:02:22.583Z,46.20
2022-12-06T07:04:54.783Z,51.40
2022-12-06T07:07:26.742Z,50.80
2022-12-06T07:09:59.137Z,47.20
2022-12-06T07:12:31.831Z,53.60
2022-12-06T07:15:04.156Z,48.20
2022-12-06T07:17:36.699Z,43.70
2022-12-06T07:20:11.231Z,41.60
2022-12-06T07:22:46.784Z,41.60
2022-12-06T07:25:19.230Z,39.70
2022-12-06T07:27:52.611Z,39.70
2022-12-06T07:30:28.255Z,36.00
2022-12-06T07:33:00.713Z,33.50
2022-12-06T07:36:03.433Z,42.90
2022-12-06T07:38:25.022Z,41.60
2022-12-06T07:41:04.877Z,37.30
2022-12-06T07:43:54.483Z,37.70
2022-12-06T07:46:26.541Z,34.10
2022-12-06T07:48:59.901Z,37.20
2022-12-06T07:51:35.100Z,35.10
2022-12-06T07:54:07.978Z,33.00
2022-12-06T07:56:40.112Z,33.80
2022-12-06T07:59:12.640Z,38.00
2022-12-06T08:01:45.150Z,36.30
2022-12-06T08:04:19.090Z,38.60
2022-12-06T08:06:51.216Z,36.10
2022-12-06T08:09:23.544Z,35.20
2022-12-06T08:11:55.859Z,35.10
2022-12-06T08:14:28.042Z,31.30
2022-12-06T08:17:00.126Z,32.30
2022-12-06T08:19:35.564Z,30.10
2022-12-06T08:22:07.858Z,25.50
2022-12-06T08:24:40.604Z,27.80
2022-12-06T08:27:14.465Z,27.80
2022-12-06T08:29:46.694Z,26.80
2022-12-06T08:32:19.662Z,26.60
2022-12-06T08:34:53.143Z,29.00
2022-12-06T08:37:25.153Z,25.60
2022-12-06T08:39:57.460Z,25.40
2022-12-06T08:42:29.732Z,26.10
2022-12-06T08:45:02.073Z,26.20
2022-12-06T08:47:35.692Z,24.30
2022-12-06T08:50:09.618Z,28.80
2022-12-06T08:52:41.624Z,26.00
2022-12-06T08:55:13.932Z,21.60
2022-12-06T08:57:46.192Z,20.70
2022-12-06T09:00:20.041Z,22.20
2022-12-06T09:05:24.912Z,27.10
2022-12-06T09:07:57.816Z,28.10
2022-12-06T09:10:30.645Z,24.70
2022-12-06T09:13:03.191Z,21.50
2022-12-06T09:15:35.659Z,23.30
2022-12-06T09:18:07.802Z,23.40
2022-12-06T09:20:42.864Z,22.80
2022-12-06T09:23:15.432Z,26.50
2022-12-06T09:25:47.583Z,27.50
2022-12-06T09:28:20.771Z,32.50
2022-12-06T09:30:52.912Z,25.60
2022-12-06T09:33:25.763Z,25.40
2022-12-06T09:35:58.732Z,26.90
2022-12-06T09:38:32.890Z,27.70
2022-12-06T09:41:20.253Z,28.60
2022-12-06T09:44:10.732Z,24.90
2022-12-06T09:46:58.230Z,25.70
2022-12-06T09:49:38.354Z,24.30
2022-12-06T09:52:26.449Z,24.00
2022-12-06T09:55:14.631Z,21.90
2022-12-06T09:57:54.503Z,26.00
2022-12-06T10:00:29.092Z,23.10
2022-12-06T10:03:20.466Z,20.80
2022-12-06T10:06:03.184Z,23.20
2022-12-06T10:09:03.039Z,22.90
2022-12-06T10:11:49.112Z,20.00
2022-12-06T10:14:32.653Z,18.50
2022-12-06T10:17:13.552Z,18.80
2022-12-06T10:20:04.928Z,19.70
2022-12-06T10:22:52.551Z,20.50
2022-12-06T10:25:32.514Z,18.90
2022-12-06T10:28:14.292Z,19.60
2022-12-06T10:30:52.656Z,24.50
2022-12-06T10:33:39.475Z,28.10
2022-12-06T10:36:14.584Z,26.50
2022-12-06T10:38:52.102Z,25.70
2022-12-06T10:41:29.759Z,24.60
2022-12-06T10:44:09.193Z,21.10
2022-12-06T10:47:06.892Z,24.10
2022-12-06T10:49:48.394Z,23.50
2022-12-06T10:52:37.984Z,22.60
2022-12-06T10:55:23.546Z,20.60
2022-12-06T10:58:11.755Z,23.10
2022-12-06T11:00:54.127Z,30.30
2022-12-06T11:03:31.692Z,32.00
2022-12-06T11:06:13.432Z,30.20
2022-12-06T11:08:49.053Z,25.10
2022-12-06T11:11:26.012Z,27.50
2022-12-06T11:14:04.639Z,23.80
2022-12-06T11:16:43.173Z,20.60
2022-12-06T11:19:28.528Z,23.60
2022-12-06T11:22:06.182Z,21.20
2022-12-06T11:24:47.760Z,21.20
2022-12-06T11:27:26.166Z,20.40
2022-12-06T11:29:58.400Z,24.10
2022-12-06T11:32:32.907Z,20.30
2022-12-06T11:35:05.522Z,23.70
2022-12-06T11:37:44.161Z,29.80
2022-12-06T11:40:25.285Z,29.60
2022-12-06T11:43:00.634Z,31.80
2022-12-06T11:45:34.863Z,33.70
2022-12-06T11:48:16.857Z,64.80
2022-12-06T11:50:50.594Z,50.90
2022-12-06T11:53:31.074Z,35.60
2022-12-06T11:56:11.607Z,69.50
2022-12-06T11:58:53.226Z,126.80
2022-12-06T12:01:41.393Z,76.00
2022-12-06T12:04:35.011Z,51.50
2022-12-06T12:07:13.956Z,32.50
2022-12-06T12:09:53.186Z,60.70
2022-12-06T12:12:50.184Z,51.40
2022-12-06T12:15:27.884Z,39.90
2022-12-06T12:18:02.004Z,39.50
2022-12-06T12:23:10.923Z,62.10
2022-12-06T12:25:44.096Z,32.00
2022-12-06T12:28:29.302Z,52.40
2022-12-06T12:31:15.043Z,36.60
2022-12-06T12:33:47.645Z,32.40
2022-12-06T12:36:26.992Z,31.70
2022-12-06T12:39:01.961Z,31.90
2022-12-06T12:41:40.480Z,34.70
2022-12-06T12:44:37.747Z,43.40
2022-12-06T12:47:20.321Z,46.50
2022-12-06T12:50:05.901Z,37.70
2022-12-06T12:52:42.471Z,35.60
2022-12-06T12:55:24.583Z,37.10
2022-12-06T12:57:59.308Z,35.00
2022-12-06T13:00:36.715Z,41.20
2022-12-06T13:03:42.787Z,37.90
2022-12-06T13:06:17.831Z,44.40
2022-12-06T13:08:50.691Z,44.10
2022-12-06T13:11:25.923Z,48.30
2022-12-06T13:14:00.623Z,45.50
2022-12-06T13:16:37.983Z,41.40
2022-12-06T13:19:18.962Z,43.70
2022-12-06T13:21:52.740Z,39.60
2022-12-06T13:24:30.381Z,39.70
2022-12-06T13:27:05.152Z,36.80
2022-12-06T13:29:42.103Z,40.10
2022-12-06T13:32:21.274Z,38.20
2022-12-06T13:34:56.491Z,38.60
2022-12-06T13:37:43.234Z,37.00
2022-12-06T13:40:45.273Z,38.60
2022-12-06T13:43:58.073Z,75.40
2022-12-06T13:46:37.657Z,54.20
2022-12-06T13:49:27.433Z,41.50
2022-12-06T13:52:00.044Z,36.20
2022-12-06T13:54:36.204Z,37.80
2022-12-06T13:57:26.384Z,33.90
2022-12-06T14:00:01.491Z,28.80
2022-12-06T14:02:47.933Z,32.90
2022-12-06T14:08:35.182Z,30.60
2022-12-06T14:11:26.126Z,35.10
2022-12-06T14:14:09.286Z,62.10
2022-12-06T14:16:45.009Z,67.80
2022-12-06T14:19:21.233Z,42.00
2022-12-06T14:21:58.314Z,44.60
2022-12-06T14:24:33.172Z,37.40
2022-12-06T14:27:13.996Z,34.50
2022-12-06T14:30:00.835Z,32.10
2022-12-06T14:32:40.877Z,32.30
2022-12-06T14:35:16.766Z,39.20
2022-12-06T14:37:55.572Z,36.00
2022-12-06T14:40:52.888Z,29.70
2022-12-06T14:43:28.302Z,27.30
2022-12-06T14:46:02.020Z,31.90
2022-12-06T14:48:51.188Z,29.60
2022-12-06T14:51:26.153Z,23.40
2022-12-06T14:54:18.300Z,20.20
2022-12-06T14:56:55.745Z,17.40
2022-12-06T15:02:30.294Z,19.70
2022-12-06T15:05:02.773Z,17.60
2022-12-06T15:07:50.683Z,22.40
2022-12-06T15:10:30.280Z,20.80
2022-12-06T15:13:16.792Z,17.80
2022-12-06T15:15:50.740Z,16.60
2022-12-06T15:18:28.363Z,15.70
2022-12-06T15:21:00.504Z,13.40
2022-12-06T15:23:36.664Z,18.20
2022-12-06T15:26:13.322Z,13.50
2022-12-06T15:28:45.789Z,12.00
2022-12-06T15:31:21.642Z,12.40
2022-12-06T15:33:54.533Z,17.20
2022-12-06T15:36:29.964Z,39.70
2022-12-06T15:39:06.713Z,33.90
2022-12-06T15:41:43.598Z,45.70
2022-12-06T15:44:21.296Z,37.60
2022-12-06T15:46:54.150Z,27.20
2022-12-06T15:49:27.326Z,27.20
2022-12-06T15:51:59.685Z,25.40
2022-12-06T15:54:32.099Z,22.80
2022-12-06T15:57:05.269Z,20.30
2022-12-06T15:59:41.377Z,17.70
2022-12-06T16:02:22.240Z,16.70
2022-12-06T16:04:54.731Z,17.50
2022-12-06T16:07:27.692Z,19.30
2022-12-06T16:10:00.186Z,21.10
2022-12-06T16:12:52.900Z,19.00
2022-12-06T16:15:25.852Z,22.00
2022-12-06T16:17:58.445Z,19.70
2022-12-06T16:20:34.352Z,25.80
2022-12-06T16:23:49.508Z,26.90
2022-12-06T16:26:21.972Z,24.20
2022-12-06T16:28:54.780Z,31.00
2022-12-06T16:31:29.535Z,38.10
2022-12-06T16:34:01.801Z,32.60
2022-12-06T16:36:35.759Z,41.20
2022-12-06T16:39:10.335Z,30.80
2022-12-06T16:41:43.522Z,21.70
2022-12-06T16:44:15.634Z,26.30
2022-12-06T16:46:49.550Z,21.40
2022-12-06T16:52:16.959Z,21.40
2022-12-06T16:54:49.184Z,21.50
2022-12-06T16:57:22.343Z,22.30
2022-12-06T16:59:57.950Z,25.40
2022-12-06T17:02:32.562Z,24.50
2022-12-06T17:05:07.258Z,20.70
2022-12-06T17:07:42.424Z,21.00
2022-12-06T17:10:16.194Z,22.40
2022-12-06T17:12:49.982Z,21.80
2022-12-06T17:15:23.815Z,25.30
2022-12-06T17:20:29.067Z,23.90
2022-12-06T17:23:03.458Z,27.60
2022-12-06T17:25:35.855Z,23.60
2022-12-06T17:28:12.627Z,24.30
2022-12-06T17:30:50.870Z,26.40
2022-12-06T17:33:23.341Z,28.80
2022-12-06T17:35:55.830Z,27.70
2022-12-06T17:38:32.567Z,29.40
2022-12-06T17:41:25.703Z,24.30
2022-12-06T17:44:11.686Z,27.40
2022-12-06T17:46:45.515Z,30.40
2022-12-06T17:49:21.374Z,29.50
2022-12-06T17:54:45.563Z,26.50
2022-12-06T17:57:19.581Z,26.10
2022-12-06T17:59:52.952Z,33.40
2022-12-06T18:02:27.588Z,28.60
2022-12-06T18:05:00.888Z,31.20
2022-12-06T18:07:34.079Z,42.30
2022-12-06T18:10:08.208Z,34.00
2022-12-06T18:12:43.265Z,35.50
2022-12-06T18:15:29.867Z,26.20
2022-12-06T18:18:06.304Z,24.50
2022-12-06T18:20:40.039Z,22.50
2022-12-06T18:23:16.365Z,16.20
2022-12-06T18:25:49.354Z,21.10
2022-12-06T18:28:21.543Z,27.60
2022-12-06T18:30:53.854Z,30.60
2022-12-06T18:33:29.643Z,30.00
2022-12-06T18:36:05.802Z,30.50
2022-12-06T18:38:38.266Z,31.00
2022-12-06T18:41:12.483Z,31.70
2022-12-06T18:43:44.662Z,29.80
2022-12-06T18:46:20.248Z,30.20
2022-12-06T18:48:54.503Z,39.30
2022-12-06T18:51:29.054Z,34.50
2022-12-06T18:54:02.704Z,30.50
2022-12-06T18:56:36.523Z,32.10
2022-12-06T19:01:42.781Z,29.90
2022-12-06T19:04:19.004Z,27.20
2022-12-06T19:06:52.063Z,40.20
2022-12-06T19:09:26.056Z,45.10
2022-12-06T19:11:58.086Z,69.60
2022-12-06T19:14:30.703Z,63.90
2022-12-06T19:17:03.100Z,54.20
2022-12-06T19:19:35.513Z,37.70
2022-12-06T19:22:08.123Z,29.00
2022-12-06T19:24:40.426Z,30.50
2022-12-06T19:27:12.923Z,25.20
2022-12-06T19:29:45.233Z,27.60
2022-12-06T19:32:17.273Z,22.40
2022-12-06T19:34:50.563Z,18.60
2022-12-06T19:37:22.654Z,17.70
2022-12-06T19:39:55.307Z,17.50
2022-12-06T19:42:45.448Z,16.90
2022-12-06T19:45:18.073Z,20.40
2022-12-06T19:47:50.332Z,17.10
2022-12-06T19:50:22.631Z,15.80
2022-12-06T19:52:58.084Z,17.10
2022-12-06T19:55:31.052Z,19.50
2022-12-06T19:58:04.393Z,18.50
2022-12-06T20:00:42.884Z,20.40
2022-12-06T20:03:18.763Z,19.10
2022-12-06T20:06:04.064Z,25.40
2022-12-06T20:08:39.226Z,23.10
2022-12-06T20:11:36.262Z,24.60
2022-12-06T20:14:10.343Z,21.80
2022-12-06T20:16:42.790Z,20.40
2022-12-06T20:19:37.951Z,17.00
2022-12-06T20:22:12.482Z,18.60
2022-12-06T20:24:45.954Z,18.10
2022-12-06T20:27:18.242Z,20.30
2022-12-06T20:29:50.542Z,17.30
2022-12-06T20:32:26.722Z,15.80
2022-12-06T20:34:59.309Z,18.50
2022-12-06T20:37:31.660Z,18.40
2022-12-06T20:40:04.210Z,16.60
2022-12-06T20:42:36.900Z,20.80
2022-12-06T20:45:10.412Z,14.70
2022-12-06T20:47:43.774Z,15.00
2022-12-06T20:50:16.652Z,14.00
2022-12-06T20:52:49.123Z,12.40
2022-12-06T20:55:21.446Z,14.40
2022-12-06T20:57:53.699Z,14.80
2022-12-06T21:00:27.479Z,15.40
2022-12-06T21:05:30.524Z,12.60
2022-12-06T21:08:10.231Z,11.70
2022-12-06T21:11:13.912Z,13.10
2022-12-06T21:13:37.434Z,12.50
2022-12-06T21:16:14.461Z,13.30
2022-12-06T21:18:47.913Z,11.60
2022-12-06T21:21:26.814Z,12.40
2022-12-06T21:24:01.933Z,14.20
2022-12-06T21:26:34.453Z,12.60
2022-12-06T21:29:07.002Z,12.20
2022-12-06T21:31:41.342Z,13.60
2022-12-06T21:34:15.742Z,14.00
2022-12-06T21:36:50.600Z,15.50
2022-12-06T21:39:25.745Z,16.30
2022-12-06T21:41:58.474Z,13.50
2022-12-06T21:44:30.452Z,15.00
2022-12-06T21:47:02.409Z,12.70
2022-12-06T21:49:34.574Z,13.10
2022-12-06T21:52:09.410Z,17.30
2022-12-06T21:54:42.393Z,16.00
2022-12-06T21:57:14.422Z,15.60
2022-12-06T21:59:48.953Z,18.30
2022-12-06T22:02:21.222Z,20.10
2022-12-06T22:04:53.612Z,19.70
2022-12-06T22:07:28.223Z,17.70
2022-12-06T22:10:00.936Z,15.20
2022-12-06T22:12:33.462Z,14.60
2022-12-06T22:15:06.973Z,18.00
2022-12-06T22:17:41.983Z,17.60
2022-12-06T22:20:14.402Z,16.70
2022-12-06T22:22:46.843Z,18.50
2022-12-06T22:25:21.702Z,17.60
2022-12-06T22:27:55.426Z,19.20
2022-12-06T22:32:58.546Z,16.20
2022-12-06T22:35:30.704Z,16.50
2022-12-06T22:38:02.873Z,20.30
2022-12-06T22:40:36.692Z,17.20
2022-12-06T22:45:41.804Z,16.70
2022-12-06T22:48:14.122Z,18.70
2022-12-06T22:50:46.194Z,17.50
2022-12-06T22:53:18.404Z,18.90
2022-12-06T22:55:50.773Z,16.50
2022-12-06T22:58:23.192Z,17.50
2022-12-06T23:00:55.189Z,14.10
2022-12-06T23:03:27.993Z,20.70
2022-12-06T23:06:03.615Z,22.00
2022-12-06T23:08:44.438Z,22.70
2022-12-06T23:11:19.145Z,22.10
2022-12-06T23:13:51.282Z,21.50
2022-12-06T23:16:25.731Z,25.10
2022-12-06T23:18:58.782Z,23.20
2022-12-06T23:21:32.860Z,25.60
2022-12-06T23:26:37.713Z,25.50
2022-12-06T23:29:10.143Z,24.60
2022-12-06T23:31:46.844Z,29.00
2022-12-06T23:34:22.547Z,28.60
2022-12-06T23:36:55.428Z,29.20
2022-12-06T23:39:27.465Z,27.20
2022-12-06T23:41:59.587Z,29.10
2022-12-06T23:44:31.727Z,26.90
2022-12-06T23:47:04.202Z,25.30
2022-12-06T23:49:38.678Z,26.40
2022-12-06T23:52:11.023Z,25.20
2022-12-06T23:54:44.663Z,29.90
2022-12-06T23:59:47.082Z,24.90
